»·PEaware :: CSPDS KVCV-KSEE

CSPDS :: KVCV-KSEE

FLIGHT INFORMATION

Flight Status: Arrived
Operator: Unknown
More flights by this operator :: More flights under this callsign
Pilot: Pedro D. (27936)
Aircraft: PIPER PA-28 CHEROKEE ARCHER
(P28A)
More flights by this aircraft type
Origin: KVCV Socal Logistics
United States
Destination: KSEE Gillespie
United States
More flights between these airports :: More routes between these airports
Route: +
File this flight plan on PilotEdge
Remarks:
Altitude:
(Current/Filed)
0ft
Speed:
(Current/Filed)
0kts
Departed: 12-Aug-20 02:36 PM
Arrived: 12-Aug-20 04:40 PM
Distance/Time
Traveled:
108nm/2:04
Distance/Time
To Go:
Arrived

Flight Plot

Page will automatically refresh every two minutes.

Flight plan parsing failed; only flown route is shown


Map Options




Map Legend


Flown Route
Filed Route
Departure Airport
Arrival Airport
Navaid (VOR, NDB)
Fix

Horizontal Profiles

Position Reports

Time Latitude Longitude Heading Altitude Ground
Speed
12-Aug-20 14:14 34.588333 -117.376341 313 2887ft 0kts
12-Aug-20 14:15 34.588333 -117.376341 313 2887ft 0kts
12-Aug-20 14:16 34.588333 -117.376341 313 2887ft 0kts
12-Aug-20 14:17 34.588334 -117.376343 314 2887ft 0kts
12-Aug-20 14:18 34.589819 -117.376408 35 2887ft 8kts
12-Aug-20 14:19 34.591247 -117.374741 45 2887ft 6kts
12-Aug-20 14:20 34.592611 -117.373120 43 2887ft 8kts
12-Aug-20 14:21 34.593280 -117.370024 88 2887ft 11kts
12-Aug-20 14:22 34.595023 -117.367567 9 2887ft 12kts
12-Aug-20 14:23 34.598453 -117.366754 11 2887ft 12kts
12-Aug-20 14:24 34.599108 -117.366593 9 2887ft 0kts
12-Aug-20 14:25 34.599108 -117.366593 9 2887ft 0kts
12-Aug-20 14:26 34.599108 -117.366593 9 2887ft 0kts
12-Aug-20 14:27 34.599108 -117.366593 9 2887ft 0kts
12-Aug-20 14:28 34.599108 -117.366593 9 2887ft 0kts
12-Aug-20 14:29 34.599108 -117.366593 9 2887ft 0kts
12-Aug-20 14:30 34.599108 -117.366593 9 2887ft 0kts
12-Aug-20 14:31 34.599108 -117.366593 9 2887ft 0kts
12-Aug-20 14:32 34.599108 -117.366593 9 2887ft 0kts
12-Aug-20 14:33 34.599402 -117.366569 1 2887ft 6kts
12-Aug-20 14:34 34.599999 -117.367171 225 2887ft 13kts
12-Aug-20 14:35 34.584751 -117.382051 219 3411ft 83kts
12-Aug-20 14:36 34.565551 -117.397591 181 4170ft 89kts
12-Aug-20 14:37 34.563169 -117.373129 59 4861ft 88kts
12-Aug-20 14:38 34.577076 -117.348481 41 5511ft 89kts
12-Aug-20 14:39 34.592635 -117.325032 72 6115ft 95kts
12-Aug-20 14:40 34.602175 -117.295495 61 6695ft 94kts
12-Aug-20 14:41 34.614748 -117.266981 55 7232ft 96kts
12-Aug-20 14:42 34.627986 -117.238291 52 7736ft 97kts
12-Aug-20 14:43 34.619884 -117.205227 110 7910ft 114kts
12-Aug-20 14:44 34.613425 -117.166122 96 7899ft 117kts
12-Aug-20 14:45 34.611420 -117.126530 101 7747ft 116kts
12-Aug-20 14:46 34.599278 -117.090534 114 7549ft 114kts
12-Aug-20 14:47 34.584532 -117.056189 109 7437ft 114kts
12-Aug-20 14:48 34.573770 -117.019543 109 7451ft 112kts
12-Aug-20 14:49 34.562037 -116.983507 116 7482ft 112kts
12-Aug-20 14:50 34.549916 -116.947765 108 7506ft 114kts
12-Aug-20 14:51 34.536363 -116.912786 119 7535ft 112kts
12-Aug-20 14:52 34.522886 -116.878353 113 7545ft 114kts
12-Aug-20 14:53 34.512578 -116.842374 109 7568ft 113kts
12-Aug-20 14:54 34.503603 -116.805511 97 7565ft 112kts
12-Aug-20 14:55 34.494296 -116.769163 118 7474ft 115kts
12-Aug-20 14:56 34.485316 -116.732292 118 7473ft 113kts
12-Aug-20 14:57 34.469833 -116.700481 88 7483ft 115kts
12-Aug-20 14:58 34.462005 -116.665324 125 7456ft 114kts
12-Aug-20 14:59 34.450578 -116.631009 90 7453ft 114kts
12-Aug-20 15:00 34.457430 -116.594015 105 7435ft 114kts
12-Aug-20 15:01 34.442541 -116.560768 111 7463ft 113kts
12-Aug-20 15:02 34.429200 -116.527022 125 7510ft 110kts
12-Aug-20 15:03 34.411469 -116.496647 134 7551ft 109kts
12-Aug-20 15:04 34.399755 -116.463007 111 7512ft 113kts
12-Aug-20 15:05 34.379367 -116.437708 108 7473ft 109kts
12-Aug-20 15:06 34.368671 -116.404163 128 7541ft 107kts
12-Aug-20 15:07 34.353480 -116.372127 114 7586ft 109kts
12-Aug-20 15:08 34.338469 -116.340183 117 7615ft 109kts
12-Aug-20 15:09 34.324779 -116.307304 116 7648ft 109kts
12-Aug-20 15:10 34.311033 -116.274790 115 7674ft 109kts
12-Aug-20 15:11 34.297201 -116.241803 119 7701ft 109kts
12-Aug-20 15:12 34.282377 -116.209592 121 7726ft 109kts
12-Aug-20 15:13 34.267571 -116.177917 126 7747ft 109kts
12-Aug-20 15:14 34.251617 -116.146584 117 7769ft 109kts
12-Aug-20 15:15 34.231429 -116.119403 141 7758ft 109kts
12-Aug-20 15:16 34.216965 -116.089762 105 7729ft 109kts
12-Aug-20 15:17 34.192975 -116.068729 159 7716ft 107kts
12-Aug-20 15:18 34.165556 -116.055183 145 7728ft 108kts
12-Aug-20 15:19 34.138603 -116.040040 168 7729ft 107kts
12-Aug-20 15:20 34.111051 -116.025680 149 7717ft 108kts
12-Aug-20 15:21 34.088234 -116.001699 134 7712ft 109kts
12-Aug-20 15:22 34.067406 -115.975377 151 7701ft 108kts
12-Aug-20 15:23 34.039972 -115.960306 157 7679ft 109kts
12-Aug-20 15:24 34.014290 -115.944303 145 7663ft 101kts
12-Aug-20 15:25 33.989640 -115.927366 146 7588ft 101kts
12-Aug-20 15:26 33.964544 -115.911547 149 7511ft 101kts
12-Aug-20 15:27 33.941415 -115.893493 184 7400ft 102kts
12-Aug-20 15:28 33.915303 -115.885645 144 7337ft 103kts
12-Aug-20 15:29 33.897673 -115.859240 127 7280ft 104kts
12-Aug-20 15:30 33.881830 -115.829857 118 7232ft 106kts
12-Aug-20 15:31 33.864191 -115.807415 181 7188ft 96kts
12-Aug-20 15:32 33.839096 -115.796518 156 7213ft 98kts
12-Aug-20 15:33 33.822725 -115.770619 123 7240ft 102kts
12-Aug-20 15:34 33.805072 -115.744673 152 7265ft 99kts
12-Aug-20 15:36 33.780307 -115.746336 213 7292ft 96kts
12-Aug-20 15:37 33.755169 -115.757312 208 7295ft 98kts
12-Aug-20 15:38 33.729906 -115.767911 187 7326ft 97kts
12-Aug-20 15:39 33.719399 -115.789410 340 7216ft 117kts
12-Aug-20 15:40 33.723758 -115.812378 205 7333ft 94kts
12-Aug-20 15:41 33.700561 -115.830014 211 7301ft 98kts
12-Aug-20 15:42 33.677520 -115.848115 210 7298ft 98kts
12-Aug-20 15:43 33.654592 -115.866021 211 7298ft 98kts
12-Aug-20 15:44 33.630822 -115.884518 211 7081ft 111kts
12-Aug-20 15:45 33.605630 -115.904019 210 6944ft 96kts
12-Aug-20 15:46 33.583696 -115.921036 210 7114ft 95kts
12-Aug-20 15:47 33.559781 -115.937434 210 7210ft 101kts
12-Aug-20 15:48 33.535122 -115.953516 210 7362ft 100kts
12-Aug-20 15:49 33.510506 -115.969463 210 7491ft 100kts
12-Aug-20 15:50 33.485899 -115.985307 210 7610ft 100kts
12-Aug-20 15:51 33.461159 -116.001166 210 7726ft 100kts
12-Aug-20 15:52 33.435247 -116.017750 210 7618ft 110kts
12-Aug-20 15:53 33.408316 -116.034934 210 7473ft 110kts
12-Aug-20 15:53 33.385714 -116.049297 209 7375ft 108kts
12-Aug-20 15:55 33.354927 -116.068709 209 7355ft 105kts
12-Aug-20 15:56 33.328937 -116.084976 209 7349ft 105kts
12-Aug-20 15:56 33.307144 -116.098532 209 7348ft 105kts
12-Aug-20 15:58 33.276727 -116.117354 209 7345ft 105kts
12-Aug-20 15:58 33.254855 -116.130803 209 7343ft 105kts
12-Aug-20 15:59 33.228692 -116.146819 209 7339ft 105kts
12-Aug-20 16:00 33.202421 -116.162827 209 7337ft 105kts
12-Aug-20 16:01 33.176342 -116.178608 208 7336ft 105kts
12-Aug-20 16:02 33.150087 -116.194300 208 7336ft 105kts
12-Aug-20 16:03 33.123902 -116.209807 208 7342ft 105kts
12-Aug-20 16:04 33.097700 -116.225187 208 7348ft 104kts
12-Aug-20 16:05 33.071592 -116.240527 208 7354ft 104kts
12-Aug-20 16:06 33.045426 -116.255923 208 7363ft 104kts
12-Aug-20 16:07 33.019426 -116.271228 208 7371ft 104kts
12-Aug-20 16:08 32.993550 -116.286488 208 7381ft 103kts
12-Aug-20 16:09 32.967595 -116.301813 208 7391ft 103kts
12-Aug-20 16:10 32.941789 -116.317042 207 7403ft 103kts
12-Aug-20 16:11 32.915107 -116.329399 175 7365ft 109kts
12-Aug-20 16:12 32.886215 -116.323530 172 7409ft 106kts
12-Aug-20 16:13 32.857116 -116.317424 172 7424ft 105kts
12-Aug-20 16:14 32.828148 -116.311295 172 7433ft 106kts
12-Aug-20 16:15 32.798994 -116.305529 187 7423ft 106kts
12-Aug-20 16:16 32.778147 -116.327809 227 7489ft 100kts
12-Aug-20 16:17 32.759332 -116.351992 227 7589ft 99kts
12-Aug-20 16:18 32.740447 -116.376245 228 7646ft 101kts
12-Aug-20 16:19 32.732605 -116.407959 256 7703ft 100kts
12-Aug-20 16:20 32.730464 -116.440481 296 7734ft 103kts
12-Aug-20 16:21 32.743522 -116.470591 304 7815ft 104kts
12-Aug-20 16:22 32.768834 -116.488954 321 7809ft 109kts
12-Aug-20 16:23 32.794198 -116.508520 321 7785ft 109kts
12-Aug-20 16:24 32.811534 -116.536482 281 7774ft 105kts
12-Aug-20 16:25 32.818433 -116.570242 284 7656ft 105kts
12-Aug-20 16:26 32.828595 -116.603782 281 7348ft 111kts
12-Aug-20 16:27 32.831668 -116.641410 270 6799ft 115kts
12-Aug-20 16:28 32.830639 -116.679302 258 6229ft 115kts
12-Aug-20 16:29 32.831827 -116.717084 274 5690ft 114kts
12-Aug-20 16:30 32.835225 -116.754178 286 5223ft 113kts
12-Aug-20 16:31 32.842459 -116.791232 281 4676ft 114kts
12-Aug-20 16:32 32.833697 -116.823472 237 4568ft 90kts
12-Aug-20 16:33 32.827038 -116.853213 266 4270ft 94kts
12-Aug-20 16:34 32.816688 -116.880833 230 3782ft 89kts
12-Aug-20 16:35 32.813585 -116.904896 280 2882ft 74kts
12-Aug-20 16:36 32.819385 -116.930408 281 1857ft 82kts
12-Aug-20 16:37 32.824477 -116.954936 284 913ft 71kts
12-Aug-20 16:38 32.828645 -116.976429 284 391ft 50kts
12-Aug-20 16:39 32.829329 -116.980939 248 391ft 6kts
12-Aug-20 16:40 32.828871 -116.981323 196 391ft 0kts
12-Aug-20 16:41 32.827860 -116.981388 142 391ft 9kts
12-Aug-20 16:42 32.826954 -116.980555 190 391ft 0kts
12-Aug-20 16:43 32.826955 -116.980555 191 391ft 0kts
12-Aug-20 16:44 32.826788 -116.980589 189 391ft 9kts
12-Aug-20 16:45 32.826152 -116.980677 183 391ft 0kts
12-Aug-20 16:46 32.826152 -116.980677 183 391ft 0kts
12-Aug-20 16:47 32.826152 -116.980677 183 391ft 0kts
12-Aug-20 16:48 32.826152 -116.980677 183 391ft 0kts
12-Aug-20 16:49 32.826152 -116.980677 183 391ft 0kts
12-Aug-20 16:50 32.826152 -116.980677 183 391ft 0kts
12-Aug-20 16:51 32.826152 -116.980677 183 391ft 0kts
12-Aug-20 16:52 32.826152 -116.980677 183 391ft 0kts
12-Aug-20 16:53 32.826152 -116.980677 183 391ft 0kts

Navigation Log

Ident Type
Flight plan parsing failed, navigation log unavailable